Arroyo Grande, California
Current Conditions -  °F | °C
As of 9:56 PM on Monday 26 Jan 2015 (Local Time) from KSBP Reporting Station
Light Rain Light Rain  
Wind Chill: 60°   Ceiling: 8000
Heat Index: 60°   Visibility: 10mi
Dew Point: 43°   Wind: 0mph
Humidity: 53%   Direction: NA
Pressure: 30.05"   Gusts: NA
Location:  35.12°N, 120.57°W
Report Text: KSBP 270556Z 00000KT 10SM -RA SCT060 OVC080 16/06 A3005 RMK AO2 RAB55 SLP175 P0000 60000 T01560061 10233 20156 53017
Loading
Personal Weather Stations






























Interactive Weather Map New forecast layout! Learn more

10-Day Weather Forecast

Advertisements
Track Severe Weather on mobile